createdAt,value
2019-06-26T00:03:08.701Z,20.70
2019-06-26T00:08:13.144Z,20.50
2019-06-26T00:13:26.167Z,20.40
2019-06-26T00:18:23.580Z,20.30
2019-06-26T00:23:27.896Z,20.20
2019-06-26T00:28:32.217Z,20.10
2019-06-26T00:33:36.545Z,19.90
2019-06-26T00:38:40.929Z,19.90
2019-06-26T00:43:45.330Z,19.80
2019-06-26T00:48:49.648Z,19.70
2019-06-26T00:53:54.059Z,19.60
2019-06-26T00:58:58.457Z,19.50
2019-06-26T01:04:04.420Z,19.40
2019-06-26T01:09:08.799Z,19.30
2019-06-26T01:14:13.124Z,19.20
2019-06-26T01:19:17.519Z,19.10
2019-06-26T01:24:21.915Z,19.10
2019-06-26T01:29:26.312Z,19.00
2019-06-26T01:34:30.743Z,18.90
2019-06-26T01:39:35.738Z,18.90
2019-06-26T01:44:40.816Z,18.80
2019-06-26T01:49:45.132Z,18.70
2019-06-26T01:54:49.463Z,18.70
2019-06-26T01:59:53.869Z,18.70
2019-06-26T02:04:58.261Z,18.70
2019-06-26T02:10:03.041Z,18.80
2019-06-26T02:15:08.976Z,18.90
2019-06-26T02:20:13.365Z,19.00
2019-06-26T02:25:18.109Z,19.00
2019-06-26T02:30:22.501Z,19.10
2019-06-26T02:35:26.822Z,19.10
2019-06-26T02:40:31.142Z,19.20
2019-06-26T02:45:35.535Z,19.20
2019-06-26T02:50:40.014Z,19.30
2019-06-26T02:55:44.338Z,19.20
2019-06-26T03:00:48.937Z,19.30
2019-06-26T03:05:53.351Z,19.20
2019-06-26T03:10:57.765Z,19.20
2019-06-26T03:16:02.088Z,19.20
2019-06-26T03:21:06.517Z,19.30
2019-06-26T03:26:10.888Z,19.20
2019-06-26T03:42:03.090Z,19.20
2019-06-26T03:47:07.675Z,19.20
2019-06-26T03:52:12.075Z,19.20
2019-06-26T03:57:16.402Z,19.20
2019-06-26T04:02:20.730Z,19.20
2019-06-26T04:07:25.047Z,19.20
2019-06-26T04:12:29.379Z,19.20
2019-06-26T04:17:33.777Z,19.20
2019-06-26T04:22:38.155Z,19.20
2019-06-26T04:27:42.483Z,19.20
2019-06-26T04:32:46.804Z,19.30
2019-06-26T04:37:51.191Z,19.30
2019-06-26T04:42:55.527Z,19.30
2019-06-26T04:47:59.853Z,19.50
2019-06-26T04:53:04.242Z,19.50
2019-06-26T04:58:08.654Z,19.50
2019-06-26T05:03:13.042Z,19.60
2019-06-26T05:08:17.433Z,19.70
2019-06-26T05:13:21.826Z,19.70
2019-06-26T05:18:26.156Z,19.80
2019-06-26T05:23:30.544Z,19.90
2019-06-26T05:28:34.943Z,20.00
2019-06-26T05:33:39.371Z,20.00
2019-06-26T05:38:43.752Z,20.10
2019-06-26T05:43:48.146Z,20.20
2019-06-26T05:48:52.536Z,20.30
2019-06-26T05:53:57.435Z,20.50
2019-06-26T05:59:01.823Z,20.70
2019-06-26T06:04:06.502Z,20.80
2019-06-26T06:09:10.912Z,20.90
2019-06-26T06:14:15.228Z,21.10
2019-06-26T06:19:19.620Z,21.30
2019-06-26T06:24:25.517Z,21.50
2019-06-26T06:29:30.930Z,21.60
2019-06-26T06:34:35.290Z,21.80
2019-06-26T06:39:39.605Z,21.90
2019-06-26T06:44:44.007Z,22.00
2019-06-26T06:49:48.334Z,22.30
2019-06-26T06:54:53.049Z,22.60
2019-06-26T06:59:59.454Z,22.80
2019-06-26T07:05:08.759Z,23.00
2019-06-26T07:10:14.498Z,23.10
2019-06-26T07:15:19.436Z,23.30
2019-06-26T07:20:24.171Z,23.40
2019-06-26T07:25:28.567Z,23.50
2019-06-26T07:30:32.971Z,23.60
2019-06-26T07:35:37.295Z,23.70
2019-06-26T07:40:41.633Z,23.90
2019-06-26T07:45:46.019Z,24.10
2019-06-26T07:50:50.407Z,24.00
2019-06-26T07:55:54.722Z,24.00
2019-06-26T08:00:59.314Z,23.90
2019-06-26T08:06:03.712Z,24.00
2019-06-26T08:11:08.096Z,24.20
2019-06-26T08:16:12.490Z,24.00
2019-06-26T08:21:16.803Z,24.00
2019-06-26T08:26:21.200Z,23.90
2019-06-26T08:31:25.625Z,23.90
2019-06-26T08:36:29.986Z,23.80
2019-06-26T08:41:34.381Z,24.00
2019-06-26T08:46:38.707Z,23.70
2019-06-26T08:51:43.146Z,23.60
2019-06-26T08:56:47.541Z,23.80
2019-06-26T09:01:51.874Z,24.10
2019-06-26T09:06:56.207Z,24.30
2019-06-26T09:12:00.819Z,24.40
2019-06-26T09:17:05.148Z,24.80
2019-06-26T09:22:09.542Z,25.10
2019-06-26T09:27:15.167Z,24.90
2019-06-26T09:32:19.625Z,24.90
2019-06-26T09:37:23.933Z,25.10
2019-06-26T09:42:28.253Z,25.30
2019-06-26T09:47:32.646Z,25.50
2019-06-26T09:52:37.042Z,25.40
2019-06-26T09:57:41.437Z,25.80
2019-06-26T10:02:45.827Z,25.80
2019-06-26T10:07:50.559Z,26.10
2019-06-26T10:12:54.875Z,26.20
2019-06-26T10:17:59.356Z,26.10
2019-06-26T10:23:03.791Z,26.40
2019-06-26T10:28:08.306Z,26.30
2019-06-26T10:33:12.708Z,26.20
2019-06-26T10:38:17.240Z,26.10
2019-06-26T10:43:21.565Z,26.40
2019-06-26T10:48:25.967Z,26.50
2019-06-26T10:53:30.309Z,26.50
2019-06-26T10:58:34.718Z,26.10
2019-06-26T11:03:39.119Z,25.70
2019-06-26T11:08:44.638Z,25.70
2019-06-26T11:13:49.000Z,25.90
2019-06-26T11:18:53.435Z,26.10
2019-06-26T11:23:57.857Z,26.30
2019-06-26T11:29:02.239Z,26.40
2019-06-26T11:34:06.831Z,26.30
2019-06-26T11:39:11.174Z,26.90
2019-06-26T11:44:15.485Z,27.40
2019-06-26T11:49:19.814Z,27.70
2019-06-26T11:54:24.135Z,28.20
2019-06-26T11:59:28.490Z,28.10
2019-06-26T12:04:32.813Z,28.60
2019-06-26T12:09:37.146Z,28.60
2019-06-26T12:14:41.463Z,28.90
2019-06-26T12:19:45.797Z,29.10
2019-06-26T12:24:50.125Z,29.40
2019-06-26T12:29:54.519Z,29.80
2019-06-26T12:34:58.917Z,30.10
2019-06-26T12:40:04.388Z,30.30
2019-06-26T12:45:09.748Z,30.60
2019-06-26T12:50:30.885Z,31.00
2019-06-26T12:55:23.567Z,30.70
2019-06-26T13:00:27.889Z,30.80
2019-06-26T13:05:32.295Z,30.90
2019-06-26T13:10:48.924Z,30.90
2019-06-26T13:15:42.042Z,30.90
2019-06-26T13:20:52.985Z,31.10
2019-06-26T13:25:52.523Z,31.40
2019-06-26T13:30:56.857Z,31.90
2019-06-26T13:36:02.948Z,32.10
2019-06-26T13:41:07.226Z,32.70
2019-06-26T13:46:11.690Z,32.30
2019-06-26T13:51:16.092Z,31.90
2019-06-26T13:56:20.437Z,31.70
2019-06-26T14:01:25.055Z,32.00
2019-06-26T14:06:29.357Z,32.40
2019-06-26T14:11:33.943Z,32.10
2019-06-26T14:16:38.337Z,32.50
2019-06-26T14:21:42.653Z,33.20
2019-06-26T14:26:47.189Z,33.40
2019-06-26T14:31:51.780Z,33.90
2019-06-26T14:36:56.207Z,34.30
2019-06-26T14:42:00.458Z,34.20
2019-06-26T14:47:04.882Z,33.20
2019-06-26T14:52:09.498Z,33.50
2019-06-26T14:57:13.827Z,33.60
2019-06-26T15:02:18.213Z,34.40
2019-06-26T15:07:22.532Z,34.40
2019-06-26T15:12:26.922Z,34.70
2019-06-26T15:17:31.268Z,35.40
2019-06-26T15:22:35.692Z,34.90
2019-06-26T15:27:40.005Z,35.40
2019-06-26T15:32:44.323Z,36.00
2019-06-26T15:37:48.887Z,35.30
2019-06-26T15:42:53.199Z,35.40
2019-06-26T15:47:57.594Z,35.40
2019-06-26T15:53:02.233Z,34.70
2019-06-26T15:58:06.594Z,34.60
2019-06-26T16:03:10.928Z,34.70
2019-06-26T16:08:15.530Z,35.00
2019-06-26T16:13:19.922Z,35.00
2019-06-26T16:18:28.896Z,34.90
2019-06-26T16:23:33.231Z,34.90
2019-06-26T16:28:37.829Z,34.60
2019-06-26T16:33:42.227Z,34.60
2019-06-26T16:38:46.554Z,34.20
2019-06-26T16:43:50.990Z,34.20
2019-06-26T16:48:55.272Z,34.60
2019-06-26T16:53:59.598Z,34.90
2019-06-26T16:59:03.916Z,34.40
2019-06-26T17:04:08.298Z,34.00
2019-06-26T17:09:12.782Z,34.30
2019-06-26T17:14:17.100Z,34.30
2019-06-26T17:19:21.428Z,33.50
2019-06-26T17:24:25.834Z,34.10
2019-06-26T17:29:30.507Z,34.10
2019-06-26T17:34:34.890Z,34.20
2019-06-26T17:39:39.322Z,34.30
2019-06-26T17:44:43.649Z,34.10
2019-06-26T17:49:48.028Z,34.20
2019-06-26T17:54:52.348Z,33.80
2019-06-26T17:59:57.000Z,33.10
2019-06-26T18:05:01.418Z,33.20
2019-06-26T18:10:11.952Z,33.00
2019-06-26T18:15:16.349Z,32.30
2019-06-26T18:20:22.406Z,32.20
2019-06-26T18:25:26.731Z,32.10
2019-06-26T18:30:31.262Z,32.00
2019-06-26T18:35:35.670Z,31.50
2019-06-26T18:40:40.064Z,30.60
2019-06-26T18:45:44.467Z,28.70
2019-06-26T18:50:48.789Z,27.30
2019-06-26T18:55:53.609Z,26.20
2019-06-26T19:00:58.201Z,25.10
2019-06-26T19:06:02.598Z,24.20
2019-06-26T19:11:06.920Z,23.60
2019-06-26T19:16:11.237Z,23.10
2019-06-26T19:21:15.640Z,22.60
2019-06-26T19:26:20.076Z,22.20
2019-06-26T19:31:24.390Z,21.90
2019-06-26T19:36:28.904Z,21.60
2019-06-26T19:41:33.295Z,21.50
2019-06-26T19:46:37.633Z,21.20
2019-06-26T19:51:42.018Z,21.10
2019-06-26T20:02:18.546Z,20.70
2019-06-26T20:35:38.705Z,19.50
2019-06-26T20:40:41.357Z,19.30
2019-06-26T20:45:45.767Z,19.20
2019-06-26T20:50:51.012Z,19.00
2019-06-26T20:55:55.400Z,18.90
2019-06-26T21:00:59.777Z,18.90
2019-06-26T21:06:04.289Z,18.80
2019-06-26T21:11:08.729Z,18.70
2019-06-26T21:16:13.049Z,18.60
2019-06-26T21:21:17.456Z,18.50
2019-06-26T21:26:21.758Z,18.40
2019-06-26T21:31:26.162Z,18.30
2019-06-26T21:36:30.477Z,18.20
2019-06-26T21:41:34.788Z,18.20
2019-06-26T21:46:39.118Z,18.10
2019-06-26T21:51:43.511Z,18.00
2019-06-26T21:56:47.895Z,17.90
2019-06-26T22:01:52.538Z,17.80
2019-06-26T22:06:56.927Z,17.70
2019-06-26T22:12:01.568Z,17.70
2019-06-26T22:17:05.947Z,17.60
2019-06-26T22:22:10.266Z,17.50
2019-06-26T22:27:14.746Z,17.50
2019-06-26T22:32:19.386Z,17.30
2019-06-26T22:37:23.881Z,17.20
2019-06-26T22:42:28.285Z,17.20
2019-06-26T22:47:32.734Z,17.10
2019-06-26T22:52:37.782Z,17.10
2019-06-26T22:57:42.170Z,17.00
2019-06-26T23:02:46.568Z,17.00
2019-06-26T23:07:50.902Z,16.90
2019-06-26T23:12:55.291Z,16.80
2019-06-26T23:17:59.752Z,16.80
2019-06-26T23:23:04.223Z,16.70
2019-06-26T23:28:08.682Z,16.60
2019-06-26T23:33:13.075Z,16.60
2019-06-26T23:38:17.389Z,16.50
2019-06-26T23:43:21.850Z,16.50
2019-06-26T23:48:26.240Z,16.40
2019-06-26T23:53:30.561Z,16.30
2019-06-26T23:58:34.958Z,16.20
